sensor_id;sensor_type;location;lat;lon;timestamp;P1;durP1;ratioP1;P2;durP2;ratioP2
69030;SDS011;56083;48.774;8.942;2023-08-12T00:00:06;12.90;;;6.53;;
69030;SDS011;56083;48.774;8.942;2023-08-12T00:02:38;11.23;;;6.60;;
69030;SDS011;56083;48.774;8.942;2023-08-12T00:05:05;14.13;;;6.30;;
69030;SDS011;56083;48.774;8.942;2023-08-12T00:07:31;10.98;;;6.47;;
69030;SDS011;56083;48.774;8.942;2023-08-12T00:09:58;12.25;;;7.07;;
69030;SDS011;56083;48.774;8.942;2023-08-12T00:12:24;17.77;;;7.18;;
69030;SDS011;56083;48.774;8.942;2023-08-12T00:14:50;14.38;;;6.80;;
69030;SDS011;56083;48.774;8.942;2023-08-12T00:17:16;13.50;;;7.18;;
69030;SDS011;56083;48.774;8.942;2023-08-12T00:19:42;15.73;;;7.38;;
69030;SDS011;56083;48.774;8.942;2023-08-12T00:22:07;12.40;;;7.40;;
69030;SDS011;56083;48.774;8.942;2023-08-12T00:24:33;15.13;;;7.18;;
69030;SDS011;56083;48.774;8.942;2023-08-12T00:26:59;12.52;;;7.47;;
69030;SDS011;56083;48.774;8.942;2023-08-12T00:29:24;11.50;;;7.00;;
69030;SDS011;56083;48.774;8.942;2023-08-12T00:31:50;12.98;;;7.25;;
69030;SDS011;56083;48.774;8.942;2023-08-12T00:34:16;11.02;;;6.80;;
69030;SDS011;56083;48.774;8.942;2023-08-12T00:36:43;14.63;;;7.43;;
69030;SDS011;56083;48.774;8.942;2023-08-12T00:39:09;9.75;;;6.32;;
69030;SDS011;56083;48.774;8.942;2023-08-12T00:41:34;10.82;;;6.20;;
69030;SDS011;56083;48.774;8.942;2023-08-12T00:44:00;12.52;;;6.65;;
69030;SDS011;56083;48.774;8.942;2023-08-12T00:46:25;11.10;;;6.47;;
69030;SDS011;56083;48.774;8.942;2023-08-12T00:48:51;14.02;;;6.82;;
69030;SDS011;56083;48.774;8.942;2023-08-12T00:51:17;8.77;;;5.93;;
69030;SDS011;56083;48.774;8.942;2023-08-12T00:53:43;9.55;;;6.30;;
69030;SDS011;56083;48.774;8.942;2023-08-12T00:56:11;12.27;;;6.13;;
69030;SDS011;56083;48.774;8.942;2023-08-12T00:58:36;12.93;;;6.30;;
69030;SDS011;56083;48.774;8.942;2023-08-12T01:01:03;9.13;;;6.30;;
69030;SDS011;56083;48.774;8.942;2023-08-12T01:03:29;11.45;;;6.07;;
69030;SDS011;56083;48.774;8.942;2023-08-12T01:05:55;14.40;;;6.10;;
69030;SDS011;56083;48.774;8.942;2023-08-12T01:08:22;11.10;;;6.45;;
69030;SDS011;56083;48.774;8.942;2023-08-12T01:10:54;12.10;;;7.03;;
69030;SDS011;56083;48.774;8.942;2023-08-12T01:16:19;12.85;;;6.30;;
69030;SDS011;56083;48.774;8.942;2023-08-12T01:18:46;9.15;;;5.88;;
69030;SDS011;56083;48.774;8.942;2023-08-12T01:21:15;12.40;;;6.20;;
69030;SDS011;56083;48.774;8.942;2023-08-12T01:23:42;13.55;;;6.80;;
69030;SDS011;56083;48.774;8.942;2023-08-12T01:26:08;9.65;;;6.55;;
69030;SDS011;56083;48.774;8.942;2023-08-12T01:28:34;16.27;;;6.35;;
69030;SDS011;56083;48.774;8.942;2023-08-12T01:31:08;11.52;;;6.32;;
69030;SDS011;56083;48.774;8.942;2023-08-12T01:34:11;10.10;;;6.82;;
69030;SDS011;56083;48.774;8.942;2023-08-12T01:36:41;12.95;;;6.32;;
69030;SDS011;56083;48.774;8.942;2023-08-12T01:39:11;13.32;;;6.55;;
69030;SDS011;56083;48.774;8.942;2023-08-12T01:41:37;11.55;;;6.70;;
69030;SDS011;56083;48.774;8.942;2023-08-12T01:44:03;10.60;;;6.53;;
69030;SDS011;56083;48.774;8.942;2023-08-12T01:46:30;14.10;;;6.47;;
69030;SDS011;56083;48.774;8.942;2023-08-12T01:48:56;11.00;;;6.53;;
69030;SDS011;56083;48.774;8.942;2023-08-12T01:51:22;11.60;;;6.90;;
69030;SDS011;56083;48.774;8.942;2023-08-12T01:53:47;11.52;;;6.68;;
69030;SDS011;56083;48.774;8.942;2023-08-12T01:56:13;8.88;;;6.20;;
69030;SDS011;56083;48.774;8.942;2023-08-12T01:58:38;9.73;;;6.03;;
69030;SDS011;56083;48.774;8.942;2023-08-12T02:01:04;9.18;;;5.97;;
69030;SDS011;56083;48.774;8.942;2023-08-12T02:03:30;14.77;;;6.70;;
69030;SDS011;56083;48.774;8.942;2023-08-12T02:05:55;11.50;;;6.60;;
69030;SDS011;56083;48.774;8.942;2023-08-12T02:08:21;8.15;;;6.13;;
69030;SDS011;56083;48.774;8.942;2023-08-12T02:10:46;9.02;;;5.88;;
69030;SDS011;56083;48.774;8.942;2023-08-12T02:13:12;10.00;;;6.43;;
69030;SDS011;56083;48.774;8.942;2023-08-12T02:15:38;13.02;;;6.47;;
69030;SDS011;56083;48.774;8.942;2023-08-12T02:18:03;7.78;;;5.80;;
69030;SDS011;56083;48.774;8.942;2023-08-12T02:20:29;12.27;;;6.57;;
69030;SDS011;56083;48.774;8.942;2023-08-12T02:22:55;10.88;;;6.47;;
69030;SDS011;56083;48.774;8.942;2023-08-12T02:25:20;10.95;;;5.85;;
69030;SDS011;56083;48.774;8.942;2023-08-12T02:27:46;9.07;;;6.13;;
69030;SDS011;56083;48.774;8.942;2023-08-12T02:30:12;11.15;;;6.15;;
69030;SDS011;56083;48.774;8.942;2023-08-12T02:32:37;10.93;;;6.32;;
69030;SDS011;56083;48.774;8.942;2023-08-12T02:35:04;11.38;;;6.00;;
69030;SDS011;56083;48.774;8.942;2023-08-12T02:37:30;15.38;;;6.60;;
69030;SDS011;56083;48.774;8.942;2023-08-12T02:39:56;10.65;;;5.72;;
69030;SDS011;56083;48.774;8.942;2023-08-12T02:42:22;13.73;;;6.38;;
69030;SDS011;56083;48.774;8.942;2023-08-12T02:44:47;10.35;;;5.63;;
69030;SDS011;56083;48.774;8.942;2023-08-12T02:47:13;9.70;;;6.30;;
69030;SDS011;56083;48.774;8.942;2023-08-12T02:49:39;8.45;;;6.13;;
69030;SDS011;56083;48.774;8.942;2023-08-12T02:52:04;10.00;;;5.95;;
69030;SDS011;56083;48.774;8.942;2023-08-12T02:54:30;8.77;;;5.75;;
69030;SDS011;56083;48.774;8.942;2023-08-12T02:56:55;13.32;;;5.80;;
69030;SDS011;56083;48.774;8.942;2023-08-12T02:59:21;13.23;;;5.95;;
69030;SDS011;56083;48.774;8.942;2023-08-12T03:01:47;10.00;;;6.50;;
69030;SDS011;56083;48.774;8.942;2023-08-12T03:04:12;13.57;;;6.10;;
69030;SDS011;56083;48.774;8.942;2023-08-12T03:06:38;12.90;;;6.15;;
69030;SDS011;56083;48.774;8.942;2023-08-12T03:09:03;12.25;;;5.88;;
69030;SDS011;56083;48.774;8.942;2023-08-12T03:11:29;11.00;;;6.03;;
69030;SDS011;56083;48.774;8.942;2023-08-12T03:13:55;10.85;;;5.85;;
69030;SDS011;56083;48.774;8.942;2023-08-12T03:16:20;13.50;;;6.22;;
69030;SDS011;56083;48.774;8.942;2023-08-12T03:18:46;9.52;;;5.72;;
69030;SDS011;56083;48.774;8.942;2023-08-12T03:21:12;14.07;;;6.43;;
69030;SDS011;56083;48.774;8.942;2023-08-12T03:23:38;7.70;;;5.70;;
69030;SDS011;56083;48.774;8.942;2023-08-12T03:26:03;9.48;;;5.88;;
69030;SDS011;56083;48.774;8.942;2023-08-12T03:28:30;7.63;;;5.60;;
69030;SDS011;56083;48.774;8.942;2023-08-12T03:30:56;10.90;;;6.20;;
69030;SDS011;56083;48.774;8.942;2023-08-12T03:33:23;12.38;;;6.43;;
69030;SDS011;56083;48.774;8.942;2023-08-12T03:35:49;14.57;;;5.97;;
69030;SDS011;56083;48.774;8.942;2023-08-12T03:38:15;15.93;;;6.35;;
69030;SDS011;56083;48.774;8.942;2023-08-12T03:40:41;8.73;;;6.07;;
69030;SDS011;56083;48.774;8.942;2023-08-12T03:43:07;10.73;;;5.90;;
69030;SDS011;56083;48.774;8.942;2023-08-12T03:45:33;8.70;;;6.00;;
69030;SDS011;56083;48.774;8.942;2023-08-12T03:48:05;11.30;;;6.13;;
69030;SDS011;56083;48.774;8.942;2023-08-12T03:50:33;13.60;;;6.20;;
69030;SDS011;56083;48.774;8.942;2023-08-12T03:52:59;8.18;;;5.20;;
69030;SDS011;56083;48.774;8.942;2023-08-12T03:55:25;10.05;;;5.55;;
69030;SDS011;56083;48.774;8.942;2023-08-12T03:57:51;10.00;;;5.30;;
69030;SDS011;56083;48.774;8.942;2023-08-12T04:00:16;17.75;;;5.90;;
69030;SDS011;56083;48.774;8.942;2023-08-12T04:02:42;8.23;;;5.50;;
69030;SDS011;56083;48.774;8.942;2023-08-12T04:05:08;8.45;;;5.43;;
69030;SDS011;56083;48.774;8.942;2023-08-12T04:07:35;11.73;;;5.45;;
69030;SDS011;56083;48.774;8.942;2023-08-12T04:10:01;13.13;;;5.80;;
69030;SDS011;56083;48.774;8.942;2023-08-12T04:12:27;6.68;;;5.03;;
69030;SDS011;56083;48.774;8.942;2023-08-12T04:14:53;10.45;;;5.57;;
69030;SDS011;56083;48.774;8.942;2023-08-12T04:17:18;8.48;;;5.65;;
69030;SDS011;56083;48.774;8.942;2023-08-12T04:19:44;9.60;;;5.75;;
69030;SDS011;56083;48.774;8.942;2023-08-12T04:22:10;11.45;;;5.53;;
69030;SDS011;56083;48.774;8.942;2023-08-12T04:24:35;10.55;;;5.00;;
69030;SDS011;56083;48.774;8.942;2023-08-12T04:27:01;7.68;;;5.30;;
69030;SDS011;56083;48.774;8.942;2023-08-12T04:29:27;7.65;;;5.50;;
69030;SDS011;56083;48.774;8.942;2023-08-12T04:31:52;12.75;;;5.78;;
69030;SDS011;56083;48.774;8.942;2023-08-12T04:34:18;9.95;;;5.35;;
69030;SDS011;56083;48.774;8.942;2023-08-12T04:36:44;7.70;;;5.20;;
69030;SDS011;56083;48.774;8.942;2023-08-12T04:39:09;10.52;;;5.57;;
69030;SDS011;56083;48.774;8.942;2023-08-12T04:41:35;7.22;;;5.72;;
69030;SDS011;56083;48.774;8.942;2023-08-12T04:44:03;7.18;;;5.22;;
69030;SDS011;56083;48.774;8.942;2023-08-12T04:46:29;7.85;;;5.50;;
69030;SDS011;56083;48.774;8.942;2023-08-12T04:48:55;9.95;;;5.43;;
69030;SDS011;56083;48.774;8.942;2023-08-12T04:51:21;8.93;;;5.20;;
69030;SDS011;56083;48.774;8.942;2023-08-12T04:53:46;12.65;;;6.05;;
69030;SDS011;56083;48.774;8.942;2023-08-12T04:56:12;12.38;;;5.85;;
69030;SDS011;56083;48.774;8.942;2023-08-12T04:58:38;11.68;;;6.18;;
69030;SDS011;56083;48.774;8.942;2023-08-12T05:01:03;10.02;;;6.03;;
69030;SDS011;56083;48.774;8.942;2023-08-12T05:03:29;12.68;;;6.70;;
69030;SDS011;56083;48.774;8.942;2023-08-12T05:05:55;11.82;;;6.45;;
69030;SDS011;56083;48.774;8.942;2023-08-12T05:08:20;10.70;;;5.80;;
69030;SDS011;56083;48.774;8.942;2023-08-12T05:10:47;12.93;;;6.63;;
69030;SDS011;56083;48.774;8.942;2023-08-12T05:13:13;13.43;;;6.93;;
69030;SDS011;56083;48.774;8.942;2023-08-12T05:15:39;9.70;;;6.28;;
69030;SDS011;56083;48.774;8.942;2023-08-12T05:18:06;13.52;;;6.97;;
69030;SDS011;56083;48.774;8.942;2023-08-12T05:20:32;11.85;;;6.55;;
69030;SDS011;56083;48.774;8.942;2023-08-12T05:22:57;13.93;;;7.03;;
69030;SDS011;56083;48.774;8.942;2023-08-12T05:25:23;9.32;;;7.00;;
69030;SDS011;56083;48.774;8.942;2023-08-12T05:27:49;13.82;;;7.78;;
69030;SDS011;56083;48.774;8.942;2023-08-12T05:30:15;11.35;;;7.90;;
69030;SDS011;56083;48.774;8.942;2023-08-12T05:32:41;11.40;;;7.43;;
69030;SDS011;56083;48.774;8.942;2023-08-12T05:35:06;11.95;;;7.63;;
69030;SDS011;56083;48.774;8.942;2023-08-12T05:37:32;10.95;;;7.53;;
69030;SDS011;56083;48.774;8.942;2023-08-12T05:39:58;8.25;;;7.13;;
69030;SDS011;56083;48.774;8.942;2023-08-12T05:42:23;11.63;;;7.07;;
69030;SDS011;56083;48.774;8.942;2023-08-12T05:44:49;8.50;;;6.90;;
69030;SDS011;56083;48.774;8.942;2023-08-12T05:47:15;11.25;;;6.88;;
69030;SDS011;56083;48.774;8.942;2023-08-12T05:49:40;9.82;;;7.07;;
69030;SDS011;56083;48.774;8.942;2023-08-12T05:52:07;9.85;;;6.60;;
69030;SDS011;56083;48.774;8.942;2023-08-12T05:54:32;12.10;;;7.63;;
69030;SDS011;56083;48.774;8.942;2023-08-12T05:56:58;11.18;;;7.32;;
69030;SDS011;56083;48.774;8.942;2023-08-12T05:59:24;11.48;;;7.18;;
69030;SDS011;56083;48.774;8.942;2023-08-12T06:01:50;9.32;;;7.05;;
69030;SDS011;56083;48.774;8.942;2023-08-12T06:04:15;8.45;;;7.05;;
69030;SDS011;56083;48.774;8.942;2023-08-12T06:06:41;9.50;;;6.60;;
69030;SDS011;56083;48.774;8.942;2023-08-12T06:09:07;11.32;;;6.65;;
69030;SDS011;56083;48.774;8.942;2023-08-12T06:11:33;12.07;;;6.93;;
69030;SDS011;56083;48.774;8.942;2023-08-12T06:13:58;9.63;;;6.47;;
69030;SDS011;56083;48.774;8.942;2023-08-12T06:16:24;12.13;;;6.43;;
69030;SDS011;56083;48.774;8.942;2023-08-12T06:18:50;12.70;;;6.22;;
69030;SDS011;56083;48.774;8.942;2023-08-12T06:21:15;10.52;;;6.18;;
69030;SDS011;56083;48.774;8.942;2023-08-12T06:23:41;14.23;;;5.93;;
69030;SDS011;56083;48.774;8.942;2023-08-12T06:26:06;9.45;;;5.97;;
69030;SDS011;56083;48.774;8.942;2023-08-12T06:28:32;9.40;;;5.55;;
69030;SDS011;56083;48.774;8.942;2023-08-12T06:30:58;8.30;;;5.07;;
69030;SDS011;56083;48.774;8.942;2023-08-12T06:33:23;8.85;;;5.93;;
69030;SDS011;56083;48.774;8.942;2023-08-12T06:35:49;7.90;;;5.50;;
69030;SDS011;56083;48.774;8.942;2023-08-12T06:38:16;9.20;;;5.32;;
69030;SDS011;56083;48.774;8.942;2023-08-12T06:40:41;10.60;;;5.90;;
69030;SDS011;56083;48.774;8.942;2023-08-12T06:43:07;8.27;;;4.95;;
69030;SDS011;56083;48.774;8.942;2023-08-12T06:45:33;11.30;;;5.40;;
69030;SDS011;56083;48.774;8.942;2023-08-12T06:47:59;7.72;;;5.53;;
69030;SDS011;56083;48.774;8.942;2023-08-12T06:50:27;9.90;;;5.55;;
69030;SDS011;56083;48.774;8.942;2023-08-12T06:52:52;6.32;;;4.88;;
69030;SDS011;56083;48.774;8.942;2023-08-12T06:55:18;8.07;;;5.30;;
69030;SDS011;56083;48.774;8.942;2023-08-12T06:57:44;13.38;;;5.60;;
69030;SDS011;56083;48.774;8.942;2023-08-12T07:00:10;8.68;;;5.22;;
69030;SDS011;56083;48.774;8.942;2023-08-12T07:02:36;5.72;;;4.30;;
69030;SDS011;56083;48.774;8.942;2023-08-12T07:05:01;7.57;;;5.40;;
69030;SDS011;56083;48.774;8.942;2023-08-12T07:07:27;8.43;;;5.20;;
69030;SDS011;56083;48.774;8.942;2023-08-12T07:09:53;5.95;;;4.22;;
69030;SDS011;56083;48.774;8.942;2023-08-12T07:12:18;7.50;;;4.30;;
69030;SDS011;56083;48.774;8.942;2023-08-12T07:14:44;7.85;;;4.53;;
69030;SDS011;56083;48.774;8.942;2023-08-12T07:17:10;7.78;;;4.60;;
69030;SDS011;56083;48.774;8.942;2023-08-12T07:19:35;6.82;;;4.10;;
69030;SDS011;56083;48.774;8.942;2023-08-12T07:22:01;9.18;;;4.13;;
69030;SDS011;56083;48.774;8.942;2023-08-12T07:24:26;12.98;;;4.07;;
69030;SDS011;56083;48.774;8.942;2023-08-12T07:26:52;5.60;;;3.80;;
69030;SDS011;56083;48.774;8.942;2023-08-12T07:29:18;6.68;;;4.05;;
69030;SDS011;56083;48.774;8.942;2023-08-12T07:31:43;7.22;;;4.80;;
69030;SDS011;56083;48.774;8.942;2023-08-12T07:34:09;9.32;;;5.47;;
69030;SDS011;56083;48.774;8.942;2023-08-12T07:36:38;10.52;;;4.03;;
69030;SDS011;56083;48.774;8.942;2023-08-12T07:39:04;7.35;;;3.78;;
69030;SDS011;56083;48.774;8.942;2023-08-12T07:41:29;9.68;;;3.45;;
69030;SDS011;56083;48.774;8.942;2023-08-12T07:43:55;6.38;;;3.63;;
69030;SDS011;56083;48.774;8.942;2023-08-12T07:46:21;8.13;;;3.75;;
69030;SDS011;56083;48.774;8.942;2023-08-12T07:48:46;8.45;;;3.75;;
69030;SDS011;56083;48.774;8.942;2023-08-12T07:51:12;11.02;;;3.67;;
69030;SDS011;56083;48.774;8.942;2023-08-12T07:53:38;11.05;;;3.55;;
69030;SDS011;56083;48.774;8.942;2023-08-12T07:56:03;8.48;;;3.25;;
69030;SDS011;56083;48.774;8.942;2023-08-12T07:58:29;9.52;;;3.75;;
69030;SDS011;56083;48.774;8.942;2023-08-12T08:00:55;4.60;;;3.20;;
69030;SDS011;56083;48.774;8.942;2023-08-12T08:03:20;7.93;;;3.50;;
69030;SDS011;56083;48.774;8.942;2023-08-12T08:05:46;5.70;;;3.72;;
69030;SDS011;56083;48.774;8.942;2023-08-12T08:08:12;8.25;;;3.58;;
69030;SDS011;56083;48.774;8.942;2023-08-12T08:10:38;7.38;;;3.05;;
69030;SDS011;56083;48.774;8.942;2023-08-12T08:13:04;10.10;;;3.50;;
69030;SDS011;56083;48.774;8.942;2023-08-12T08:15:29;6.57;;;3.78;;
69030;SDS011;56083;48.774;8.942;2023-08-12T08:17:55;5.38;;;3.50;;
69030;SDS011;56083;48.774;8.942;2023-08-12T08:20:21;9.23;;;3.60;;
69030;SDS011;56083;48.774;8.942;2023-08-12T08:22:47;9.13;;;3.40;;
69030;SDS011;56083;48.774;8.942;2023-08-12T08:25:12;7.43;;;3.70;;
69030;SDS011;56083;48.774;8.942;2023-08-12T08:27:38;8.90;;;3.42;;
69030;SDS011;56083;48.774;8.942;2023-08-12T08:30:05;5.97;;;3.10;;
69030;SDS011;56083;48.774;8.942;2023-08-12T08:32:33;5.35;;;3.03;;
69030;SDS011;56083;48.774;8.942;2023-08-12T08:34:59;6.65;;;3.25;;
69030;SDS011;56083;48.774;8.942;2023-08-12T08:37:25;5.25;;;3.05;;
69030;SDS011;56083;48.774;8.942;2023-08-12T08:39:50;5.95;;;3.00;;
69030;SDS011;56083;48.774;8.942;2023-08-12T08:42:16;3.60;;;2.78;;
69030;SDS011;56083;48.774;8.942;2023-08-12T08:44:45;3.35;;;2.53;;
69030;SDS011;56083;48.774;8.942;2023-08-12T08:47:14;4.10;;;3.15;;
69030;SDS011;56083;48.774;8.942;2023-08-12T08:49:43;3.90;;;2.72;;
69030;SDS011;56083;48.774;8.942;2023-08-12T08:52:09;6.32;;;3.00;;
69030;SDS011;56083;48.774;8.942;2023-08-12T08:54:35;7.10;;;3.15;;
69030;SDS011;56083;48.774;8.942;2023-08-12T08:57:01;8.00;;;2.90;;
69030;SDS011;56083;48.774;8.942;2023-08-12T08:59:28;5.75;;;2.80;;
69030;SDS011;56083;48.774;8.942;2023-08-12T09:01:53;4.32;;;3.30;;
69030;SDS011;56083;48.774;8.942;2023-08-12T09:04:21;7.82;;;3.20;;
69030;SDS011;56083;48.774;8.942;2023-08-12T09:06:48;8.13;;;3.05;;
69030;SDS011;56083;48.774;8.942;2023-08-12T09:09:16;8.63;;;3.00;;
69030;SDS011;56083;48.774;8.942;2023-08-12T09:11:45;11.10;;;3.90;;
69030;SDS011;56083;48.774;8.942;2023-08-12T09:14:12;4.75;;;3.40;;
69030;SDS011;56083;48.774;8.942;2023-08-12T09:16:38;7.72;;;3.22;;
69030;SDS011;56083;48.774;8.942;2023-08-12T09:19:04;5.18;;;3.28;;
69030;SDS011;56083;48.774;8.942;2023-08-12T09:21:30;6.53;;;2.53;;
69030;SDS011;56083;48.774;8.942;2023-08-12T09:23:56;5.30;;;2.53;;
69030;SDS011;56083;48.774;8.942;2023-08-12T09:26:21;4.63;;;2.50;;
69030;SDS011;56083;48.774;8.942;2023-08-12T09:28:47;4.57;;;2.50;;
69030;SDS011;56083;48.774;8.942;2023-08-12T09:31:26;6.43;;;2.42;;
69030;SDS011;56083;48.774;8.942;2023-08-12T09:33:57;5.20;;;2.92;;
69030;SDS011;56083;48.774;8.942;2023-08-12T09:36:31;3.08;;;2.25;;
69030;SDS011;56083;48.774;8.942;2023-08-12T09:38:58;3.03;;;2.35;;
69030;SDS011;56083;48.774;8.942;2023-08-12T09:41:27;6.20;;;2.50;;
69030;SDS011;56083;48.774;8.942;2023-08-12T09:43:55;7.15;;;2.38;;
69030;SDS011;56083;48.774;8.942;2023-08-12T09:46:22;6.32;;;3.05;;
69030;SDS011;56083;48.774;8.942;2023-08-12T09:48:51;5.75;;;2.60;;
69030;SDS011;56083;48.774;8.942;2023-08-12T09:51:17;7.50;;;2.78;;
69030;SDS011;56083;48.774;8.942;2023-08-12T09:53:44;5.95;;;2.42;;
69030;SDS011;56083;48.774;8.942;2023-08-12T09:56:12;6.35;;;2.83;;
69030;SDS011;56083;48.774;8.942;2023-08-12T09:58:39;4.15;;;2.55;;
69030;SDS011;56083;48.774;8.942;2023-08-12T10:01:08;5.40;;;2.53;;
69030;SDS011;56083;48.774;8.942;2023-08-12T10:03:35;5.70;;;2.53;;
69030;SDS011;56083;48.774;8.942;2023-08-12T10:06:02;5.53;;;2.60;;
69030;SDS011;56083;48.774;8.942;2023-08-12T10:08:28;3.45;;;2.42;;
69030;SDS011;56083;48.774;8.942;2023-08-12T10:10:54;5.20;;;2.92;;
69030;SDS011;56083;48.774;8.942;2023-08-12T10:13:23;4.70;;;2.78;;
69030;SDS011;56083;48.774;8.942;2023-08-12T10:15:49;3.58;;;2.30;;
69030;SDS011;56083;48.774;8.942;2023-08-12T10:18:17;6.60;;;2.63;;
69030;SDS011;56083;48.774;8.942;2023-08-12T10:20:44;7.78;;;2.30;;
69030;SDS011;56083;48.774;8.942;2023-08-12T10:23:13;6.13;;;2.53;;
69030;SDS011;56083;48.774;8.942;2023-08-12T10:25:41;4.57;;;2.38;;
69030;SDS011;56083;48.774;8.942;2023-08-12T10:28:08;6.28;;;2.72;;
69030;SDS011;56083;48.774;8.942;2023-08-12T10:30:34;5.07;;;2.50;;
69030;SDS011;56083;48.774;8.942;2023-08-12T10:33:02;10.68;;;2.45;;
69030;SDS011;56083;48.774;8.942;2023-08-12T10:35:47;8.25;;;2.70;;
69030;SDS011;56083;48.774;8.942;2023-08-12T10:38:16;4.47;;;2.53;;
69030;SDS011;56083;48.774;8.942;2023-08-12T10:40:44;5.55;;;2.28;;
69030;SDS011;56083;48.774;8.942;2023-08-12T10:43:11;9.18;;;2.70;;
69030;SDS011;56083;48.774;8.942;2023-08-12T10:45:57;4.30;;;2.92;;
69030;SDS011;56083;48.774;8.942;2023-08-12T10:48:23;8.43;;;2.80;;
69030;SDS011;56083;48.774;8.942;2023-08-12T10:50:58;3.15;;;2.50;;
69030;SDS011;56083;48.774;8.942;2023-08-12T10:53:28;3.95;;;2.70;;
69030;SDS011;56083;48.774;8.942;2023-08-12T10:55:58;7.03;;;2.90;;
69030;SDS011;56083;48.774;8.942;2023-08-12T10:58:44;6.43;;;2.40;;
69030;SDS011;56083;48.774;8.942;2023-08-12T11:01:17;8.70;;;2.45;;
69030;SDS011;56083;48.774;8.942;2023-08-12T11:03:43;3.15;;;2.30;;
69030;SDS011;56083;48.774;8.942;2023-08-12T11:06:10;4.88;;;2.30;;
69030;SDS011;56083;48.774;8.942;2023-08-12T11:08:36;5.65;;;2.58;;
69030;SDS011;56083;48.774;8.942;2023-08-12T11:11:19;3.53;;;2.20;;
69030;SDS011;56083;48.774;8.942;2023-08-12T11:13:58;5.57;;;2.20;;
69030;SDS011;56083;48.774;8.942;2023-08-12T11:16:45;5.40;;;2.60;;
69030;SDS011;56083;48.774;8.942;2023-08-12T11:19:12;7.78;;;2.38;;
69030;SDS011;56083;48.774;8.942;2023-08-12T11:21:38;7.07;;;2.47;;
69030;SDS011;56083;48.774;8.942;2023-08-12T11:24:04;4.65;;;2.50;;
69030;SDS011;56083;48.774;8.942;2023-08-12T11:26:30;7.10;;;2.55;;
69030;SDS011;56083;48.774;8.942;2023-08-12T11:28:56;6.22;;;2.50;;
69030;SDS011;56083;48.774;8.942;2023-08-12T11:31:22;6.65;;;2.30;;
69030;SDS011;56083;48.774;8.942;2023-08-12T11:33:48;6.13;;;2.22;;
69030;SDS011;56083;48.774;8.942;2023-08-12T11:36:14;5.15;;;2.60;;
69030;SDS011;56083;48.774;8.942;2023-08-12T11:38:40;7.60;;;2.53;;
69030;SDS011;56083;48.774;8.942;2023-08-12T11:41:05;4.82;;;2.40;;
69030;SDS011;56083;48.774;8.942;2023-08-12T11:43:34;4.22;;;2.45;;
69030;SDS011;56083;48.774;8.942;2023-08-12T11:45:59;5.00;;;2.25;;
69030;SDS011;56083;48.774;8.942;2023-08-12T11:48:28;7.10;;;3.70;;
69030;SDS011;56083;48.774;8.942;2023-08-12T11:50:53;10.82;;;3.50;;
69030;SDS011;56083;48.774;8.942;2023-08-12T11:53:20;6.50;;;3.75;;
69030;SDS011;56083;48.774;8.942;2023-08-12T11:55:46;6.50;;;3.55;;
69030;SDS011;56083;48.774;8.942;2023-08-12T11:58:13;8.32;;;3.53;;
69030;SDS011;56083;48.774;8.942;2023-08-12T12:00:43;6.82;;;3.97;;
69030;SDS011;56083;48.774;8.942;2023-08-12T12:03:09;8.23;;;3.80;;
69030;SDS011;56083;48.774;8.942;2023-08-12T12:05:35;6.22;;;3.97;;
69030;SDS011;56083;48.774;8.942;2023-08-12T12:08:01;14.70;;;5.28;;
69030;SDS011;56083;48.774;8.942;2023-08-12T12:12:54;15.02;;;6.50;;
69030;SDS011;56083;48.774;8.942;2023-08-12T12:15:20;16.38;;;6.50;;
69030;SDS011;56083;48.774;8.942;2023-08-12T12:17:49;10.00;;;5.70;;
69030;SDS011;56083;48.774;8.942;2023-08-12T12:20:15;14.07;;;6.47;;
69030;SDS011;56083;48.774;8.942;2023-08-12T12:22:42;16.20;;;6.68;;
69030;SDS011;56083;48.774;8.942;2023-08-12T12:25:10;12.30;;;6.72;;
69030;SDS011;56083;48.774;8.942;2023-08-12T12:27:37;13.02;;;6.40;;
69030;SDS011;56083;48.774;8.942;2023-08-12T12:30:05;8.00;;;3.88;;
69030;SDS011;56083;48.774;8.942;2023-08-12T12:32:32;6.75;;;3.88;;
69030;SDS011;56083;48.774;8.942;2023-08-12T12:34:59;6.47;;;3.83;;
69030;SDS011;56083;48.774;8.942;2023-08-12T12:37:25;9.27;;;4.05;;
69030;SDS011;56083;48.774;8.942;2023-08-12T12:39:50;10.02;;;3.90;;
69030;SDS011;56083;48.774;8.942;2023-08-12T12:42:16;6.75;;;3.90;;
69030;SDS011;56083;48.774;8.942;2023-08-12T12:44:45;6.40;;;2.83;;
69030;SDS011;56083;48.774;8.942;2023-08-12T12:47:11;8.90;;;3.60;;
69030;SDS011;56083;48.774;8.942;2023-08-12T12:49:39;7.20;;;3.90;;
69030;SDS011;56083;48.774;8.942;2023-08-12T12:52:11;8.07;;;3.72;;
69030;SDS011;56083;48.774;8.942;2023-08-12T12:54:38;8.52;;;3.13;;
69030;SDS011;56083;48.774;8.942;2023-08-12T12:57:04;9.65;;;3.60;;
69030;SDS011;56083;48.774;8.942;2023-08-12T12:59:33;8.00;;;2.88;;
69030;SDS011;56083;48.774;8.942;2023-08-12T13:01:59;7.70;;;3.22;;
69030;SDS011;56083;48.774;8.942;2023-08-12T13:04:24;8.95;;;3.20;;
69030;SDS011;56083;48.774;8.942;2023-08-12T13:06:51;7.28;;;3.10;;
69030;SDS011;56083;48.774;8.942;2023-08-12T13:09:22;6.95;;;2.90;;
69030;SDS011;56083;48.774;8.942;2023-08-12T13:11:48;11.98;;;3.42;;
69030;SDS011;56083;48.774;8.942;2023-08-12T13:14:14;6.30;;;3.28;;
69030;SDS011;56083;48.774;8.942;2023-08-12T13:16:46;6.63;;;3.40;;
69030;SDS011;56083;48.774;8.942;2023-08-12T13:19:11;7.70;;;3.25;;
69030;SDS011;56083;48.774;8.942;2023-08-12T13:21:40;7.18;;;3.17;;
69030;SDS011;56083;48.774;8.942;2023-08-12T13:24:06;12.98;;;3.70;;
69030;SDS011;56083;48.774;8.942;2023-08-12T13:26:33;15.27;;;3.53;;
69030;SDS011;56083;48.774;8.942;2023-08-12T13:29:00;9.50;;;3.55;;
69030;SDS011;56083;48.774;8.942;2023-08-12T13:31:33;9.20;;;3.65;;
69030;SDS011;56083;48.774;8.942;2023-08-12T13:34:03;6.20;;;3.08;;
69030;SDS011;56083;48.774;8.942;2023-08-12T13:36:28;6.15;;;3.15;;
69030;SDS011;56083;48.774;8.942;2023-08-12T13:38:56;6.63;;;3.17;;
69030;SDS011;56083;48.774;8.942;2023-08-12T13:41:21;8.02;;;3.35;;
69030;SDS011;56083;48.774;8.942;2023-08-12T13:43:47;5.93;;;2.88;;
69030;SDS011;56083;48.774;8.942;2023-08-12T13:46:13;7.70;;;3.13;;
69030;SDS011;56083;48.774;8.942;2023-08-12T13:48:39;9.13;;;3.00;;
69030;SDS011;56083;48.774;8.942;2023-08-12T13:51:05;10.57;;;3.33;;
69030;SDS011;56083;48.774;8.942;2023-08-12T13:53:36;8.20;;;3.13;;
69030;SDS011;56083;48.774;8.942;2023-08-12T13:56:03;7.47;;;2.90;;
69030;SDS011;56083;48.774;8.942;2023-08-12T13:58:29;8.20;;;2.70;;
69030;SDS011;56083;48.774;8.942;2023-08-12T14:00:55;6.53;;;2.75;;
69030;SDS011;56083;48.774;8.942;2023-08-12T14:03:24;8.32;;;3.03;;
69030;SDS011;56083;48.774;8.942;2023-08-12T14:05:50;5.10;;;2.65;;
69030;SDS011;56083;48.774;8.942;2023-08-12T14:08:16;6.30;;;2.75;;
69030;SDS011;56083;48.774;8.942;2023-08-12T14:10:42;6.35;;;2.78;;
69030;SDS011;56083;48.774;8.942;2023-08-12T14:13:07;5.65;;;2.70;;
69030;SDS011;56083;48.774;8.942;2023-08-12T14:15:35;8.70;;;2.67;;
69030;SDS011;56083;48.774;8.942;2023-08-12T14:18:01;5.15;;;2.45;;
69030;SDS011;56083;48.774;8.942;2023-08-12T14:20:27;5.97;;;2.65;;
69030;SDS011;56083;48.774;8.942;2023-08-12T14:22:53;9.35;;;2.83;;
69030;SDS011;56083;48.774;8.942;2023-08-12T14:25:18;6.88;;;2.70;;
69030;SDS011;56083;48.774;8.942;2023-08-12T14:27:45;6.07;;;2.67;;
69030;SDS011;56083;48.774;8.942;2023-08-12T14:30:13;6.38;;;2.50;;
69030;SDS011;56083;48.774;8.942;2023-08-12T14:32:43;9.10;;;2.88;;
69030;SDS011;56083;48.774;8.942;2023-08-12T14:35:08;8.95;;;2.83;;
69030;SDS011;56083;48.774;8.942;2023-08-12T14:37:34;8.43;;;2.90;;
69030;SDS011;56083;48.774;8.942;2023-08-12T14:40:00;6.65;;;2.55;;
69030;SDS011;56083;48.774;8.942;2023-08-12T14:42:26;6.03;;;2.55;;
69030;SDS011;56083;48.774;8.942;2023-08-12T14:44:52;6.50;;;2.78;;